Time;durP1;ratioP1;P1;durP2;ratioP2;P2;SDS_P1;SDS_P2;PMS_P1;PMS_P2;Temp;Humidity;BMP_temperature;BMP_pressure;BME280_temperature;BME280_humidity;BME280_pressure;Samples;Min_cycle;Max_cycle;Signal;HPM_P1;HPM_P2
2023/01/31 00:00:28;;;;;;;45.57;19.97;;;;;;;;;;2055527;28;20296;-90
2023/01/31 00:01:30;;;;;;;;;;;;;;;;;;2055981;28;20022;-90
2023/01/31 00:02:30;;;;;;;43.38;19.48;;;;;;;;;;2063338;28;20008;-91
2023/01/31 00:03:30;;;;;;;;;;;;;;;;;;2063242;28;20112;-90
2023/01/31 00:04:31;;;;;;;42.43;18.73;;;;;;;;;;2055357;28;19910;-90
2023/01/31 00:05:31;;;;;;;;;;;;;;;;;;2056082;28;20049;-90
2023/01/31 00:06:33;;;;;;;36.00;17.57;;;;;;;;;;2072624;28;19918;-90
2023/01/31 00:07:33;;;;;;;43.10;20.40;;;;;;;;;;2064240;28;20133;-89
2023/01/31 00:08:34;;;;;;;;;;;;;;;;;;2064889;28;20089;-89
2023/01/31 00:09:34;;;;;;;37.90;19.57;;;;;;;;;;2072540;28;19979;-89
2023/01/31 00:10:34;;;;;;;;;;;;;;;;;;2063275;28;20036;-91
2023/01/31 00:11:35;;;;;;;40.93;18.50;;;;;;;;;;2054972;28;19917;-91
2023/01/31 00:12:35;;;;;;;;;;;;;;;;;;2063331;28;20547;-90
2023/01/31 00:13:36;;;;;;;36.77;18.00;;;;;;;;;;2063080;28;19910;-91
2023/01/31 00:14:36;;;;;;;;;;;;;;;;;;2055291;28;20096;-91
2023/01/31 00:15:36;;;;;;;43.93;17.83;;;;;;;;;;2065161;28;20391;-91
2023/01/31 00:16:37;;;;;;;43.58;22.05;;;;;;;;;;2081122;28;20030;-91
2023/01/31 00:17:37;;;;;;;;;;;;;;;;;;2073896;28;20027;-91
2023/01/31 00:18:38;;;;;;;44.43;20.10;;;;;;;;;;2064863;28;19924;-90
2023/01/31 00:19:38;;;;;;;;;;;;;;;;;;2067703;28;20046;-90
2023/01/31 00:20:39;;;;;;;41.27;19.63;;;;;;;;;;2067750;28;19918;-90
2023/01/31 00:21:42;;;;;;;46.92;22.73;;;;;;;;;;2064182;28;20030;-90
2023/01/31 00:22:43;;;;;;;45.53;23.00;;;;;;;;;;2071899;28;20065;-91
2023/01/31 00:23:44;;;;;;;;;;;;;;;;;;2063061;28;20027;-91
2023/01/31 00:24:44;;;;;;;38.28;19.30;;;;;;;;;;2054697;28;19910;-91
2023/01/31 00:25:45;;;;;;;;;;;;;;;;;;2063300;28;20413;-91
2023/01/31 00:26:47;;;;;;;41.95;19.35;;;;;;;;;;2071720;28;19917;-91
2023/01/31 00:27:47;;;;;;;48.55;22.65;;;;;;;;;;2062847;28;20153;-90
2023/01/31 00:28:48;;;;;;;;;;;;;;;;;;2055253;28;20025;-91
2023/01/31 00:29:49;;;;;;;43.55;20.70;;;;;;;;;;2055137;28;20309;-90
2023/01/31 00:30:49;;;;;;;;;;;;;;;;;;2055081;28;20102;-91
2023/01/31 00:31:51;;;;;;;41.93;20.20;;;;;;;;;;2063021;28;19947;-91
2023/01/31 00:32:51;;;;;;;45.95;21.65;;;;;;;;;;2071552;28;20029;-90
2023/01/31 00:33:52;;;;;;;;;;;;;;;;;;2064141;28;20053;-91
2023/01/31 00:34:53;;;;;;;40.22;19.67;;;;;;;;;;2062881;28;20349;-92
2023/01/31 00:35:53;;;;;;;53.60;25.77;;;;;;;;;;2071521;28;20397;-91
2023/01/31 00:36:54;;;;;;;;;;;;;;;;;;2073526;28;20149;-91
2023/01/31 00:37:54;;;;;;;47.03;21.77;;;;;;;;;;2067459;28;19909;-90
2023/01/31 00:38:56;;;;;;;;;;;;;;;;;;2073336;28;20018;-90
2023/01/31 00:39:56;;;;;;;44.00;21.95;;;;;;;;;;2071318;28;19910;-90
2023/01/31 00:40:56;;;;;;;;;;;;;;;;;;2069952;28;20027;-90
2023/01/31 00:41:57;;;;;;;35.97;18.20;;;;;;;;;;2076229;28;19964;-90
2023/01/31 00:42:57;;;;;;;;;;;;;;;;;;2064768;28;20033;-90
2023/01/31 00:43:58;;;;;;;37.27;20.63;;;;;;;;;;2057122;28;19910;-91
2023/01/31 00:54:32;;;;;;;49.15;25.48;;;;;;;;;;2070869;28;20077;-91
2023/01/31 00:55:33;;;;;;;;;;;;;;;;;;2080427;28;20044;-92
2023/01/31 00:56:33;;;;;;;51.93;25.07;;;;;;;;;;2071819;28;20371;-90
2023/01/31 00:57:34;;;;;;;;;;;;;;;;;;2056687;28;20030;-91
2023/01/31 00:58:35;;;;;;;45.77;23.47;;;;;;;;;;2067822;28;20308;-92
2023/01/31 00:59:35;;;;;;;;;;;;;;;;;;2077494;28;20025;-94
2023/01/31 01:00:35;;;;;;;38.70;17.90;;;;;;;;;;2064682;28;19951;-93
2023/01/31 01:01:36;;;;;;;;;;;;;;;;;;2056398;28;20108;-91
2023/01/31 01:02:36;;;;;;;48.57;23.80;;;;;;;;;;2056148;28;19913;-93
2023/01/31 01:03:37;;;;;;;;;;;;;;;;;;2064828;28;20053;-93
2023/01/31 01:04:38;;;;;;;39.73;18.63;;;;;;;;;;2080518;28;19908;-93
2023/01/31 01:05:38;;;;;;;;;;;;;;;;;;2072236;28;20026;-93
2023/01/31 01:06:40;;;;;;;37.70;20.10;;;;;;;;;;2055572;28;19917;-92
2023/01/31 01:07:41;;;;;;;47.72;24.17;;;;;;;;;;2055432;28;20089;-91
2023/01/31 01:08:41;;;;;;;;;;;;;;;;;;2055514;28;20400;-91
2023/01/31 01:09:42;;;;;;;60.25;23.75;;;;;;;;;;2054555;28;20693;-90
2023/01/31 01:10:42;;;;;;;51.78;25.38;;;;;;;;;;2071114;28;20076;-91
2023/01/31 01:11:43;;;;;;;;;;;;;;;;;;2071538;28;20080;-89
2023/01/31 01:12:43;;;;;;;49.72;22.33;;;;;;;;;;2055196;28;19914;-91
2023/01/31 01:13:44;;;;;;;;;;;;;;;;;;2063349;28;20440;-89
2023/01/31 01:14:44;;;;;;;52.72;23.33;;;;;;;;;;2062923;28;19952;-89
2023/01/31 01:15:45;;;;;;;53.70;27.30;;;;;;;;;;2071116;28;20137;-89
2023/01/31 01:16:45;;;;;;;;;;;;;;;;;;2071296;28;20026;-89
2023/01/31 01:17:46;;;;;;;45.25;22.90;;;;;;;;;;2063183;28;20269;-92
2023/01/31 01:18:48;;;;;;;;;;;;;;;;;;2072348;28;20034;-92
2023/01/31 01:19:48;;;;;;;;;;;;;;;;;;2063269;28;19918;-90
2023/01/31 01:20:48;;;;;;;34.50;16.90;;;;;;;;;;2062749;28;19910;-90
2023/01/31 01:21:49;;;;;;;;;;;;;;;;;;2071930;28;20022;-89
2023/01/31 01:22:49;;;;;;;30.77;16.58;;;;;;;;;;2071698;28;19913;-90
2023/01/31 01:23:50;;;;;;;;;;;;;;;;;;2063434;28;20432;-91
2023/01/31 01:24:50;;;;;;;35.47;16.43;;;;;;;;;;2062885;28;20337;-92
2023/01/31 01:25:50;;;;;;;;;;;;;;;;;;2055336;28;20058;-89
2023/01/31 01:26:51;;;;;;;38.10;17.85;;;;;;;;;;2063066;28;19945;-90
2023/01/31 01:27:51;;;;;;;;;;;;;;;;;;2055589;28;20161;-90
2023/01/31 01:28:53;;;;;;;33.00;17.70;;;;;;;;;;2055086;28;19909;-92
2023/01/31 01:29:53;;;;;;;43.72;20.27;;;;;;;;;;2071588;28;20144;-92
2023/01/31 01:30:54;;;;;;;;;;;;;;;;;;2080134;28;20060;-90
2023/01/31 01:31:54;;;;;;;40.57;18.17;;;;;;;;;;2063289;28;20008;-90
2023/01/31 01:32:55;;;;;;;;;;;;;;;;;;2057547;28;20057;-90
2023/01/31 01:33:57;;;;;;;30.97;16.90;;;;;;;;;;2056510;28;19914;-91
2023/01/31 01:35:00;;;;;;;35.08;19.48;;;;;;;;;;2055622;28;20038;-91
2023/01/31 01:36:06;;;;;;;39.08;20.67;;;;;;;;;;2055139;28;20023;-91
2023/01/31 01:37:18;;;;;;;45.45;21.77;;;;;;;;;;2063818;28;20026;-91
2023/01/31 01:38:20;;;;;;;37.35;19.45;;;;;;;;;;2062811;28;20096;-91
2023/01/31 01:39:21;;;;;;;41.78;21.35;;;;;;;;;;2055192;28;20019;-91
2023/01/31 01:40:23;;;;;;;;;;;;;;;;;;2058967;28;20090;-91
2023/01/31 01:41:24;;;;;;;37.70;18.88;;;;;;;;;;2069685;28;19909;-91
2023/01/31 01:42:32;;;;;;;;;;;;;;;;;;2065552;28;20069;-89
2023/01/31 01:43:55;;;;;;;35.03;15.57;;;;;;;;;;2056125;28;19930;-91
2023/01/31 01:45:00;;;;;;;39.10;18.35;;;;;;;;;;2063352;28;20143;-92
2023/01/31 01:46:01;;;;;;;37.17;18.83;;;;;;;;;;2055484;28;20680;-92
2023/01/31 01:47:01;;;;;;;;;;;;;;;;;;2071588;28;20033;-89
2023/01/31 01:48:07;;;;;;;32.17;15.87;;;;;;;;;;2071208;28;19941;-92
2023/01/31 01:49:31;;;;;;;33.30;17.42;;;;;;;;;;2055491;28;20046;-92
2023/01/31 01:50:35;;;;;;;28.08;15.80;;;;;;;;;;2058103;28;20113;-91
2023/01/31 01:51:41;;;;;;;35.50;18.45;;;;;;;;;;2060421;28;20030;-91
2023/01/31 01:52:46;;;;;;;44.42;21.38;;;;;;;;;;2058955;28;20026;-91
2023/01/31 01:53:50;;;;;;;40.53;20.33;;;;;;;;;;2062763;28;20612;-91
2023/01/31 01:55:05;;;;;;;48.17;21.40;;;;;;;;;;2055417;28;20027;-91
2023/01/31 01:56:10;;;;;;;38.42;20.25;;;;;;;;;;2056646;28;20418;-91
2023/01/31 01:57:14;;;;;;;45.50;21.77;;;;;;;;;;2071522;28;20346;-92
2023/01/31 01:58:43;;;;;;;38.78;19.58;;;;;;;;;;2070349;28;20030;-91
2023/01/31 01:59:51;;;;;;;43.97;20.38;;;;;;;;;;2062773;28;20035;-91
2023/01/31 02:00:52;;;;;;;43.38;21.67;;;;;;;;;;2064323;28;20041;-92
2023/01/31 02:01:55;;;;;;;45.10;23.45;;;;;;;;;;2071770;28;20026;-91
2023/01/31 02:02:58;;;;;;;41.80;21.52;;;;;;;;;;2062800;28;20022;-91
2023/01/31 02:03:59;;;;;;;42.45;21.13;;;;;;;;;;2063130;28;20629;-91
2023/01/31 02:05:02;;;;;;;;;;;;;;;;;;2063291;28;20054;-91
2023/01/31 02:06:05;;;;;;;44.13;19.33;;;;;;;;;;2062999;28;19910;-91
2023/01/31 02:07:07;;;;;;;50.90;22.27;;;;;;;;;;2062826;28;20037;-91
2023/01/31 02:08:09;;;;;;;41.92;21.30;;;;;;;;;;2055022;28;20030;-91
2023/01/31 02:09:19;;;;;;;45.28;21.42;;;;;;;;;;2062923;28;20026;-91
2023/01/31 02:10:26;;;;;;;38.45;19.80;;;;;;;;;;2056344;28;20492;-91
2023/01/31 02:11:29;;;;;;;47.40;22.42;;;;;;;;;;2064194;28;20097;-91
2023/01/31 02:12:32;;;;;;;47.30;21.42;;;;;;;;;;2064069;28;20037;-91
2023/01/31 02:13:33;;;;;;;41.67;22.00;;;;;;;;;;2059279;28;20501;-90
2023/01/31 02:14:34;;;;;;;39.35;20.95;;;;;;;;;;2064625;28;20497;-91
2023/01/31 02:15:35;;;;;;;43.85;20.70;;;;;;;;;;2073106;28;20531;-90
2023/01/31 02:16:35;;;;;;;;;;;;;;;;;;2064770;28;20104;-91
2023/01/31 02:17:36;;;;;;;34.47;17.90;;;;;;;;;;2053918;28;19917;-92
2023/01/31 02:18:36;;;;;;;;;;;;;;;;;;2056721;28;20035;-91
2023/01/31 02:20:09;;;;;;;35.80;16.30;;;;;;;;;;2056576;28;19914;-92
2023/01/31 02:21:22;;;;;;;37.03;18.63;;;;;;;;;;2060336;28;20084;-92
2023/01/31 02:22:28;;;;;;;35.95;18.55;;;;;;;;;;2057921;28;20026;-91
2023/01/31 02:24:11;;;;;;;43.35;21.27;;;;;;;;;;2064192;28;20022;-92
2023/01/31 02:25:26;;;;;;;39.10;18.83;;;;;;;;;;2064307;28;20026;-90
2023/01/31 02:26:32;;;;;;;35.53;19.05;;;;;;;;;;1708462;28;10001259;-92
2023/01/31 02:28:15;;;;;;;40.95;20.90;;;;;;;;;;2057365;28;20506;-92
2023/01/31 02:29:23;;;;;;;38.28;19.38;;;;;;;;;;2054007;28;20046;-90
2023/01/31 02:30:33;;;;;;;47.00;21.80;;;;;;;;;;2050850;28;20501;-91
2023/01/31 02:32:11;;;;;;;42.67;21.33;;;;;;;;;;2064497;28;20030;-91
2023/01/31 02:33:20;;;;;;;37.17;19.45;;;;;;;;;;2069272;28;20022;-91
2023/01/31 02:34:24;;;;;;;38.95;19.55;;;;;;;;;;2064287;28;20030;-91
2023/01/31 02:35:49;;;;;;;38.95;20.63;;;;;;;;;;2057292;28;20105;-92
2023/01/31 02:37:11;;;;;;;44.17;20.20;;;;;;;;;;2068112;28;20184;-92
2023/01/31 02:38:44;;;;;;;42.83;22.25;;;;;;;;;;2064579;28;20492;-92
2023/01/31 02:40:09;;;;;;;40.55;19.92;;;;;;;;;;2064534;28;20041;-90
2023/01/31 02:41:39;;;;;;;40.55;20.17;;;;;;;;;;2067496;28;20381;-92
2023/01/31 02:43:14;;;;;;;40.47;21.05;;;;;;;;;;2072923;28;20088;-90
2023/01/31 02:46:07;;;;;;;42.22;20.48;;;;;;;;;;2076443;28;20038;-92
2023/01/31 02:47:20;;;;;;;42.75;20.05;;;;;;;;;;2064308;28;20034;-92
2023/01/31 02:48:54;;;;;;;40.75;21.33;;;;;;;;;;2057884;28;20057;-91
2023/01/31 02:50:21;;;;;;;46.33;22.00;;;;;;;;;;2064396;28;20034;-91
2023/01/31 02:51:28;;;;;;;45.13;23.58;;;;;;;;;;2051363;28;20534;-91
2023/01/31 02:52:55;;;;;;;46.53;23.88;;;;;;;;;;2057131;28;20027;-91
2023/01/31 02:54:10;;;;;;;47.42;24.83;;;;;;;;;;2066766;28;20049;-91
2023/01/31 02:56:45;;;;;;;41.63;22.08;;;;;;;;;;2068618;28;20030;-91
2023/01/31 02:57:49;;;;;;;49.83;23.92;;;;;;;;;;2063952;28;20041;-91
2023/01/31 02:58:53;;;;;;;51.15;25.88;;;;;;;;;;2064541;28;20022;-90
2023/01/31 02:59:55;;;;;;;48.13;24.52;;;;;;;;;;2064194;28;20117;-90
2023/01/31 03:00:58;;;;;;;53.03;28.55;;;;;;;;;;2064196;28;20457;-91
2023/01/31 03:02:04;;;;;;;47.00;23.85;;;;;;;;;;2064428;28;20521;-91
2023/01/31 03:03:11;;;;;;;45.47;24.17;;;;;;;;;;2063337;28;20015;-92
2023/01/31 03:04:13;;;;;;;46.28;24.67;;;;;;;;;;2083371;28;20009;-92
2023/01/31 03:05:15;;;;;;;54.08;27.83;;;;;;;;;;2082819;28;20018;-91
2023/01/31 03:06:32;;;;;;;46.80;25.48;;;;;;;;;;2063885;28;20033;-92
2023/01/31 03:07:41;;;;;;;47.00;24.08;;;;;;;;;;2066220;28;20026;-92
2023/01/31 03:08:44;;;;;;;45.53;23.10;;;;;;;;;;2059544;28;20023;-92
2023/01/31 03:10:04;;;;;;;51.70;25.33;;;;;;;;;;2057818;28;20433;-92
2023/01/31 03:11:07;;;;;;;44.67;23.67;;;;;;;;;;2064807;28;20067;-91
2023/01/31 03:12:41;;;;;;;39.17;20.05;;;;;;;;;;2056959;28;20447;-91
2023/01/31 03:13:55;;;;;;;37.28;18.35;;;;;;;;;;2069742;28;20082;-91
2023/01/31 03:17:30;;;;;;;38.08;19.88;;;;;;;;;;2068819;28;20034;-93
2023/01/31 03:17:31;;;;;;;37.97;19.10;;;;;;;;;;2072993;28;20037;-91
2023/01/31 03:18:52;;;;;;;38.35;18.17;;;;;;;;;;2063942;28;20030;-91
2023/01/31 03:20:18;;;;;;;37.40;18.10;;;;;;;;;;2066932;28;20071;-91
2023/01/31 03:21:29;;;;;;;34.00;17.35;;;;;;;;;;2073033;28;20060;-91
2023/01/31 03:22:34;;;;;;;35.55;19.63;;;;;;;;;;2066125;28;20496;-91
2023/01/31 03:23:39;;;;;;;36.67;18.70;;;;;;;;;;2062931;28;20098;-91
2023/01/31 03:24:41;;;;;;;34.70;18.33;;;;;;;;;;2065957;28;20019;-90
2023/01/31 03:25:43;;;;;;;35.70;18.73;;;;;;;;;;2074853;28;20054;-89
2023/01/31 03:26:45;;;;;;;37.42;18.35;;;;;;;;;;2070478;28;20624;-92
2023/01/31 03:27:51;;;;;;;37.10;18.70;;;;;;;;;;2068313;28;20030;-89
2023/01/31 03:28:56;;;;;;;38.92;18.13;;;;;;;;;;2067650;28;20026;-91
2023/01/31 03:30:04;;;;;;;37.25;19.75;;;;;;;;;;2066200;28;20027;-91
2023/01/31 03:31:04;;;;;;;33.33;17.70;;;;;;;;;;2064712;28;20036;-91
2023/01/31 03:32:17;;;;;;;;;;;;;;;;;;2056970;28;20465;-91
2023/01/31 03:33:28;;;;;;;29.27;14.85;;;;;;;;;;2057438;28;20033;-92
2023/01/31 03:34:29;;;;;;;;;;;;;;;;;;2057934;28;20042;-90
2023/01/31 03:35:33;;;;;;;37.75;18.10;;;;;;;;;;2064133;28;19910;-92
2023/01/31 03:37:04;;;;;;;34.78;16.60;;;;;;;;;;2074164;28;20119;-93
2023/01/31 03:38:15;;;;;;;34.63;17.00;;;;;;;;;;2071035;28;20050;-91
2023/01/31 03:39:32;;;;;;;40.17;19.13;;;;;;;;;;2057378;28;20453;-92
2023/01/31 03:41:13;;;;;;;38.83;19.77;;;;;;;;;;2058005;28;20509;-92
2023/01/31 03:42:48;;;;;;;36.80;16.83;;;;;;;;;;2058090;28;20050;-91
2023/01/31 03:43:58;;;;;;;32.85;16.92;;;;;;;;;;2070509;28;20291;-91
2023/01/31 03:45:17;;;;;;;34.53;16.95;;;;;;;;;;2064232;28;20068;-92
2023/01/31 03:46:26;;;;;;;37.30;19.13;;;;;;;;;;2063872;28;20031;-91
2023/01/31 03:47:30;;;;;;;35.05;18.48;;;;;;;;;;2063838;28;20061;-92
2023/01/31 03:48:36;;;;;;;34.63;18.00;;;;;;;;;;2056314;28;20102;-91
2023/01/31 03:49:41;;;;;;;35.08;18.75;;;;;;;;;;2056747;28;20101;-92
2023/01/31 03:50:55;;;;;;;42.90;22.55;;;;;;;;;;2064645;28;20232;-91
2023/01/31 03:52:06;;;;;;;37.80;18.98;;;;;;;;;;2072708;28;20113;-91
2023/01/31 03:53:13;;;;;;;35.58;18.25;;;;;;;;;;2063767;28;20105;-91
2023/01/31 03:54:20;;;;;;;36.72;17.90;;;;;;;;;;2063918;28;20117;-92
2023/01/31 03:55:30;;;;;;;37.35;19.58;;;;;;;;;;2063900;28;20141;-92
2023/01/31 03:56:40;;;;;;;37.38;18.77;;;;;;;;;;2064055;28;20094;-92
2023/01/31 03:57:43;;;;;;;40.17;19.63;;;;;;;;;;2065011;28;20105;-92
2023/01/31 03:58:53;;;;;;;37.47;19.42;;;;;;;;;;2063825;28;20579;-91
2023/01/31 04:01:07;;;;;;;38.63;19.58;;;;;;;;;;2270547;22;20053;-90
2023/01/31 04:02:11;;;;;;;41.58;19.95;;;;;;;;;;2073393;28;20547;-90
2023/01/31 04:03:20;;;;;;;38.13;21.48;;;;;;;;;;2064202;28;20010;-91
2023/01/31 04:04:27;;;;;;;45.73;21.50;;;;;;;;;;1718319;28;10216098;-91
2023/01/31 04:05:31;;;;;;;39.72;21.05;;;;;;;;;;2064259;28;20308;-91
2023/01/31 04:06:31;;;;;;;42.80;21.52;;;;;;;;;;2063577;28;20079;-91
2023/01/31 04:07:32;;;;;;;;;;;;;;;;;;2072088;28;20030;-91
2023/01/31 04:08:33;;;;;;;34.37;17.87;;;;;;;;;;2080812;28;19939;-91
2023/01/31 04:09:37;;;;;;;36.50;18.05;;;;;;;;;;2072221;28;20032;-92
2023/01/31 04:10:37;;;;;;;39.97;18.17;;;;;;;;;;2072126;28;20034;-91
2023/01/31 04:11:38;;;;;;;;;;;;;;;;;;2080766;28;20480;-90
2023/01/31 04:12:39;;;;;;;33.47;17.90;;;;;;;;;;2080646;28;19959;-92
2023/01/31 04:13:41;;;;;;;44.53;19.85;;;;;;;;;;2071624;28;20045;-91
2023/01/31 04:14:42;;;;;;;39.75;19.90;;;;;;;;;;2063463;28;20089;-90
2023/01/31 04:15:42;;;;;;;;;;;;;;;;;;2064428;28;20093;-93
2023/01/31 04:16:43;;;;;;;34.57;17.10;;;;;;;;;;2063933;28;20383;-91
2023/01/31 04:17:43;;;;;;;;;;;;;;;;;;2063894;28;20129;-90
2023/01/31 04:18:43;;;;;;;33.07;17.03;;;;;;;;;;2063225;28;19909;-91
2023/01/31 04:19:44;;;;;;;;;;;;;;;;;;2071774;28;20033;-91
2023/01/31 04:20:45;;;;;;;29.50;15.50;;;;;;;;;;1732538;28;10001673;-91
2023/01/31 04:21:46;;;;;;;35.28;17.83;;;;;;;;;;1725630;28;10001111;-89
2023/01/31 04:22:46;;;;;;;40.55;19.70;;;;;;;;;;2058203;28;20201;-91
2023/01/31 04:23:46;;;;;;;;;;;;;;;;;;2071077;28;20099;-89
2023/01/31 04:24:47;;;;;;;33.57;15.27;;;;;;;;;;2071246;28;19909;-91
2023/01/31 04:25:47;;;;;;;;;;;;;;;;;;2063691;28;20034;-90
2023/01/31 04:26:48;;;;;;;31.57;15.93;;;;;;;;;;2063183;28;19910;-91
2023/01/31 04:27:50;;;;;;;37.67;17.05;;;;;;;;;;2071441;28;20049;-91
2023/01/31 04:28:51;;;;;;;37.25;18.10;;;;;;;;;;2071202;28;20520;-90
2023/01/31 04:29:51;;;;;;;;;;;;;;;;;;2072091;28;20128;-91
2023/01/31 04:30:59;;;;;;;26.23;14.53;;;;;;;;;;2079668;28;19968;-91
2023/01/31 04:31:59;;;;;;;34.45;16.67;;;;;;;;;;2071431;28;20502;-91
2023/01/31 04:32:59;;;;;;;;;;;;;;;;;;2063728;28;20109;-92
2023/01/31 04:34:00;;;;;;;31.57;16.23;;;;;;;;;;2071307;28;19909;-91
2023/01/31 04:35:00;;;;;;;;;;;;;;;;;;2071641;28;20744;-90
2023/01/31 04:36:01;;;;;;;22.10;13.85;;;;;;;;;;2070730;28;20358;-91
2023/01/31 04:37:01;;;;;;;31.40;17.25;;;;;;;;;;2080148;28;20558;-92
2023/01/31 04:38:02;;;;;;;39.97;18.35;;;;;;;;;;2079955;28;20444;-92
2023/01/31 04:39:02;;;;;;;;;;;;;;;;;;2071535;28;20022;-90
2023/01/31 04:40:03;;;;;;;32.60;15.93;;;;;;;;;;2071324;28;20082;-89
2023/01/31 04:41:04;;;;;;;;;;;;;;;;;;2072193;28;20154;-90
2023/01/31 04:42:04;;;;;;;32.73;15.33;;;;;;;;;;2072029;28;20353;-91
2023/01/31 04:43:04;;;;;;;;;;;;;;;;;;2071617;28;20025;-90
2023/01/31 04:44:05;;;;;;;24.15;10.82;;;;;;;;;;2071006;28;20284;-91
2023/01/31 04:45:05;;;;;;;;;;;;;;;;;;2071693;28;20030;-90
2023/01/31 04:46:06;;;;;;;26.55;13.85;;;;;;;;;;2071278;28;19917;-90
2023/01/31 04:47:06;;;;;;;;;;;;;;;;;;2071665;28;20033;-90
2023/01/31 04:48:07;;;;;;;23.77;13.43;;;;;;;;;;2079940;28;20280;-90
2023/01/31 04:49:07;;;;;;;;;;;;;;;;;;2071572;28;20025;-90
2023/01/31 04:50:08;;;;;;;25.88;12.20;;;;;;;;;;2070988;28;19910;-90
2023/01/31 04:51:09;;;;;;;36.17;17.50;;;;;;;;;;2070907;28;20107;-90
2023/01/31 04:52:10;;;;;;;;;;;;;;;;;;2071404;28;20098;-90
2023/01/31 04:53:10;;;;;;;35.83;16.17;;;;;;;;;;2070950;28;20365;-90
2023/01/31 04:54:11;;;;;;;;;;;;;;;;;;2071309;28;20044;-90
2023/01/31 04:55:12;;;;;;;23.33;12.33;;;;;;;;;;2062662;28;19910;-90
2023/01/31 04:56:12;;;;;;;41.78;18.92;;;;;;;;;;2062907;28;20026;-90
2023/01/31 04:57:13;;;;;;;;;;;;;;;;;;2063434;28;20053;-90
2023/01/31 04:58:13;;;;;;;28.33;14.83;;;;;;;;;;2062921;28;19916;-90
2023/01/31 04:59:14;;;;;;;34.20;16.52;;;;;;;;;;2071119;28;20116;-90
2023/01/31 05:00:14;;;;;;;;;;;;;;;;;;2063374;28;20033;-88
2023/01/31 05:01:15;;;;;;;28.17;14.10;;;;;;;;;;2062844;28;19914;-88
2023/01/31 05:02:16;;;;;;;;;;;;;;;;;;2071432;28;20049;-88
2023/01/31 05:03:16;;;;;;;31.67;14.85;;;;;;;;;;2071219;28;20321;-90
2023/01/31 05:04:17;;;;;;;34.30;17.95;;;;;;;;;;2062760;28;20169;-91
2023/01/31 05:05:17;;;;;;;;;;;;;;;;;;2071637;28;20033;-88
2023/01/31 05:06:18;;;;;;;32.37;15.20;;;;;;;;;;2079794;28;20306;-89
2023/01/31 05:07:18;;;;;;;;;;;;;;;;;;2080329;28;20029;-90
2023/01/31 05:08:19;;;;;;;33.92;15.27;;;;;;;;;;2079917;28;19912;-90
2023/01/31 05:09:19;;;;;;;;;;;;;;;;;;2071416;28;20049;-91
2023/01/31 05:10:20;;;;;;;34.43;14.97;;;;;;;;;;2070917;28;20417;-88
2023/01/31 05:11:20;;;;;;;;;;;;;;;;;;2080501;28;20082;-90
2023/01/31 05:12:21;;;;;;;31.23;14.55;;;;;;;;;;2079642;28;19945;-89
2023/01/31 05:13:23;;;;;;;41.03;18.48;;;;;;;;;;2079704;28;20040;-90
2023/01/31 05:14:23;;;;;;;38.08;21.88;;;;;;;;;;2079972;28;20029;-91
2023/01/31 05:15:23;;;;;;;;;;;;;;;;;;2071450;28;20150;-91
2023/01/31 05:16:24;;;;;;;36.43;18.27;;;;;;;;;;2074520;28;20466;-92
2023/01/31 05:17:28;;;;;;;;;;;;;;;;;;2075521;28;20520;-88
2023/01/31 05:18:29;;;;;;;34.60;17.63;;;;;;;;;;2072743;28;19910;-91
2023/01/31 05:19:29;;;;;;;;;;;;;;;;;;2071779;28;20041;-89
2023/01/31 05:20:32;;;;;;;33.43;15.83;;;;;;;;;;2063074;28;19909;-91
2023/01/31 05:21:53;;;;;;;37.97;19.23;;;;;;;;;;2063323;28;20037;-90
2023/01/31 05:22:53;;;;;;;41.10;19.17;;;;;;;;;;2073897;28;20157;-91
2023/01/31 05:23:53;;;;;;;;;;;;;;;;;;2078904;28;20049;-91
2023/01/31 05:24:56;;;;;;;32.28;17.30;;;;;;;;;;2063534;28;20429;-90
2023/01/31 05:25:57;;;;;;;35.97;19.55;;;;;;;;;;2063096;28;20030;-90
2023/01/31 05:27:01;;;;;;;;;;;;;;;;;;2063118;28;20028;-90
2023/01/31 05:28:03;;;;;;;33.45;17.33;;;;;;;;;;2071222;28;19941;-91
2023/01/31 05:29:06;;;;;;;41.20;21.45;;;;;;;;;;2079559;28;20037;-89
2023/01/31 05:30:07;;;;;;;46.67;22.95;;;;;;;;;;2070591;28;20488;-89
2023/01/31 05:31:08;;;;;;;45.25;23.13;;;;;;;;;;2062640;28;20026;-89
2023/01/31 05:32:08;;;;;;;;;;;;;;;;;;2071407;28;20448;-88
2023/01/31 05:33:09;;;;;;;40.80;19.83;;;;;;;;;;2070606;28;20376;-89
2023/01/31 05:34:13;;;;;;;;;;;;;;;;;;2062940;28;20145;-89
2023/01/31 05:35:15;;;;;;;36.50;18.92;;;;;;;;;;2071039;28;19972;-90
2023/01/31 05:36:15;;;;;;;39.63;21.40;;;;;;;;;;2070828;28;20021;-91
2023/01/31 05:37:15;;;;;;;;;;;;;;;;;;2062780;28;20571;-89
2023/01/31 05:38:16;;;;;;;42.53;19.63;;;;;;;;;;2071663;28;20008;-90
2023/01/31 05:39:16;;;;;;;39.63;19.67;;;;;;;;;;2070863;28;20090;-92
2023/01/31 05:40:17;;;;;;;;;;;;;;;;;;2071285;28;20026;-91
2023/01/31 05:41:17;;;;;;;39.13;20.07;;;;;;;;;;2079759;28;19952;-89
2023/01/31 05:42:17;;;;;;;;;;;;;;;;;;2080192;28;20467;-90
2023/01/31 05:43:23;;;;;;;39.38;21.23;;;;;;;;;;2079747;28;20240;-90
2023/01/31 05:44:24;;;;;;;50.97;25.77;;;;;;;;;;2070627;28;20443;-89
2023/01/31 05:45:24;;;;;;;;;;;;;;;;;;2063191;28;20026;-88
2023/01/31 05:46:24;;;;;;;44.10;22.03;;;;;;;;;;2071915;28;20346;-89
2023/01/31 05:47:25;;;;;;;;;;;;;;;;;;2080911;28;20069;-90
2023/01/31 05:48:25;;;;;;;45.17;22.13;;;;;;;;;;2081457;28;19931;-91
2023/01/31 05:49:30;;;;;;;;;;;;;;;;;;2075188;28;20077;-90
2023/01/31 05:50:31;;;;;;;44.13;22.42;;;;;;;;;;2069544;28;19909;-91
2023/01/31 05:51:31;;;;;;;;;;;;;;;;;;2075215;28;20137;-90
2023/01/31 05:52:34;;;;;;;41.73;23.73;;;;;;;;;;2073377;28;19913;-91
2023/01/31 05:53:35;;;;;;;49.85;26.15;;;;;;;;;;2064863;28;20456;-91
2023/01/31 05:54:38;;;;;;;;;;;;;;;;;;2064839;28;20080;-91
2023/01/31 05:55:38;;;;;;;50.83;26.00;;;;;;;;;;2064487;28;19994;-90
2023/01/31 05:56:39;;;;;;;;;;;;;;;;;;2073309;28;20077;-90
2023/01/31 05:57:39;;;;;;;49.38;23.73;;;;;;;;;;2072539;28;20311;-93
2023/01/31 05:58:40;;;;;;;;;;;;;;;;;;2065576;28;20108;-92
2023/01/31 05:59:41;;;;;;;45.75;23.77;;;;;;;;;;1720318;28;10000668;-92
2023/01/31 06:00:41;;;;;;;58.70;31.70;;;;;;;;;;2064761;28;20038;-91
2023/01/31 06:01:42;;;;;;;;;;;;;;;;;;2064856;28;20583;-90
2023/01/31 06:02:42;;;;;;;44.33;24.70;;;;;;;;;;2073203;28;19917;-90
2023/01/31 06:03:43;;;;;;;;;;;;;;;;;;2082047;28;20059;-91
2023/01/31 06:04:46;;;;;;;50.70;25.27;;;;;;;;;;2072897;28;20300;-91
2023/01/31 06:05:47;;;;;;;45.17;24.15;;;;;;;;;;2065872;28;20030;-92
2023/01/31 06:06:47;;;;;;;;;;;;;;;;;;2073823;28;20543;-91
2023/01/31 06:07:48;;;;;;;47.00;23.70;;;;;;;;;;2082339;28;19944;-91
2023/01/31 06:08:48;;;;;;;;;;;;;;;;;;2074925;28;20018;-90
2023/01/31 06:09:48;;;;;;;44.20;22.10;;;;;;;;;;2082745;28;20084;-91
2023/01/31 06:10:49;;;;;;;;;;;;;;;;;;2086572;28;20033;-90
2023/01/31 06:11:49;;;;;;;48.37;25.30;;;;;;;;;;2085104;28;19912;-91
2023/01/31 06:12:50;;;;;;;;;;;;;;;;;;2079913;28;20026;-90
2023/01/31 06:13:50;;;;;;;48.33;24.05;;;;;;;;;;1725286;28;10108733;-90
2023/01/31 06:14:51;;;;;;;;;;;;;;;;;;2081527;28;20058;-90
2023/01/31 06:15:52;;;;;;;39.70;22.50;;;;;;;;;;2073630;28;19955;-90
2023/01/31 06:16:52;;;;;;;;;;;;;;;;;;2072840;28;20033;-90
2023/01/31 06:17:52;;;;;;;46.93;23.17;;;;;;;;;;2072251;28;19987;-91
2023/01/31 06:18:54;;;;;;;50.65;27.48;;;;;;;;;;2072300;28;20128;-92
2023/01/31 06:19:54;;;;;;;50.13;28.13;;;;;;;;;;2072638;28;20022;-91
2023/01/31 06:20:55;;;;;;;;;;;;;;;;;;2081809;28;20059;-91
2023/01/31 06:21:55;;;;;;;50.80;24.87;;;;;;;;;;2081462;28;19991;-90
2023/01/31 06:22:56;;;;;;;50.78;27.65;;;;;;;;;;2082254;28;20040;-90
2023/01/31 06:23:56;;;;;;;;;;;;;;;;;;2081959;28;20029;-91
2023/01/31 06:24:56;;;;;;;58.43;28.73;;;;;;;;;;2081100;28;19968;-89
2023/01/31 06:25:57;;;;;;;80.57;42.65;;;;;;;;;;1731597;28;10063796;-91
2023/01/31 06:26:57;;;;;;;;;;;;;;;;;;2081674;28;20042;-89
2023/01/31 06:27:58;;;;;;;57.63;31.77;;;;;;;;;;2072474;28;19913;-90
2023/01/31 06:28:58;;;;;;;;;;;;;;;;;;2072909;28;20405;-91
2023/01/31 06:29:59;;;;;;;73.87;37.63;;;;;;;;;;2073196;28;19909;-90
2023/01/31 06:31:04;;;;;;;;;;;;;;;;;;2074180;28;20057;-93
2023/01/31 06:32:05;;;;;;;64.10;34.40;;;;;;;;;;2071993;28;19916;-89
2023/01/31 06:33:05;;;;;;;;;;;;;;;;;;2072400;28;20052;-89
2023/01/31 06:34:06;;;;;;;86.03;43.83;;;;;;;;;;2072207;28;19909;-91
2023/01/31 06:35:07;;;;;;;108.45;49.92;;;;;;;;;;2072445;28;20537;-89
2023/01/31 06:36:07;;;;;;;106.10;56.05;;;;;;;;;;2072145;28;20112;-89
2023/01/31 06:37:08;;;;;;;;;;;;;;;;;;2064697;28;20567;-89
2023/01/31 06:38:11;;;;;;;105.63;52.63;;;;;;;;;;2072093;28;19916;-90
2023/01/31 06:39:14;;;;;;;110.70;57.90;;;;;;;;;;2072842;28;20036;-92
2023/01/31 06:40:16;;;;;;;115.18;61.10;;;;;;;;;;2065369;28;20022;-91
2023/01/31 06:41:20;;;;;;;111.90;58.15;;;;;;;;;;2072941;28;20412;-91
2023/01/31 06:42:21;;;;;;;117.32;61.67;;;;;;;;;;2071972;28;20460;-91
2023/01/31 06:43:21;;;;;;;;;;;;;;;;;;2064799;28;20029;-90
2023/01/31 06:44:22;;;;;;;118.47;62.33;;;;;;;;;;2064235;28;20404;-92